»·PEaware :: N75X KLAS-KSAN

N75X :: KLAS-KSAN

FLIGHT INFORMATION

Flight Status: Arrived
Operator: Privately registered:
United States
More flights under this callsign
Pilot: Mike E. (26974)
Aircraft: SOCATA TBM-900
(TBM9)
More flights by this aircraft type
Origin: KLAS McCarran Intl
United States
Destination: KSAN San Diego Intl-Lindbergh
United States
More flights between these airports :: More routes between these airports
Route: LAS GFS TNP JLI
File this flight plan on PilotEdge
Remarks: RMK / SIMBRIEF
Altitude:
(Current/Filed)
24,000ft
Speed:
(Current/Filed)
314kts
Departed: 10-Jun-20 06:38 PM
Arrived: 10-Jun-20 07:41 PM
Distance/Time
Traveled:
224nm/1:02
Distance/Time
To Go:
Arrived

Flight Plot

Page will automatically refresh every two minutes.


Map Options




Map Legend


Flown Route
Filed Route
Departure Airport
Arrival Airport
Navaid (VOR, NDB)
Fix

Horizontal Profiles

Position Reports

Time Latitude Longitude Heading Altitude Ground
Speed
10-Jun-20 17:58 36.083214 -115.169949 88 2163ft 0kts
10-Jun-20 17:59 36.083214 -115.169949 88 2163ft 0kts
10-Jun-20 18:00 36.083214 -115.169949 88 2163ft 0kts
10-Jun-20 18:01 36.083214 -115.169949 88 2163ft 0kts
10-Jun-20 18:02 36.083214 -115.169949 88 2163ft 0kts
10-Jun-20 18:03 36.083214 -115.169949 88 2163ft 0kts
10-Jun-20 18:04 36.083214 -115.169949 88 2163ft 0kts
10-Jun-20 18:05 36.083214 -115.169949 88 2163ft 0kts
10-Jun-20 18:06 36.083214 -115.169949 88 2163ft 0kts
10-Jun-20 18:07 36.083214 -115.169949 88 2163ft 0kts
10-Jun-20 18:08 36.083214 -115.169949 88 2163ft 0kts
10-Jun-20 18:09 36.083214 -115.169949 88 2163ft 0kts
10-Jun-20 18:10 36.083214 -115.169949 88 2163ft 0kts
10-Jun-20 18:11 36.083214 -115.169949 88 2163ft 0kts
10-Jun-20 18:12 36.083214 -115.169949 88 2163ft 0kts
10-Jun-20 18:13 36.083214 -115.169949 88 2163ft 0kts
10-Jun-20 18:14 36.083214 -115.169949 88 2163ft 0kts
10-Jun-20 18:15 36.083214 -115.169949 88 2163ft 0kts
10-Jun-20 18:16 36.083214 -115.169949 88 2163ft 0kts
10-Jun-20 18:17 36.083214 -115.169949 88 2163ft 0kts
10-Jun-20 18:18 36.083214 -115.169949 88 2163ft 0kts
10-Jun-20 18:19 36.083214 -115.169949 88 2163ft 0kts
10-Jun-20 18:20 36.083214 -115.169949 88 2163ft 0kts
10-Jun-20 18:21 36.083214 -115.169949 88 2163ft 0kts
10-Jun-20 18:22 36.083214 -115.169949 88 2163ft 0kts
10-Jun-20 18:23 36.083214 -115.169949 88 2163ft 0kts
10-Jun-20 18:24 36.083214 -115.169949 88 2163ft 0kts
10-Jun-20 18:25 36.083175 -115.169650 101 2162ft 4kts
10-Jun-20 18:26 36.084437 -115.168160 23 2153ft 9kts
10-Jun-20 18:27 36.086715 -115.166244 28 2140ft 13kts
10-Jun-20 18:28 36.090205 -115.164243 25 2124ft 12kts
10-Jun-20 18:29 36.093877 -115.162141 24 2107ft 20kts
10-Jun-20 18:30 36.098846 -115.159317 24 2091ft 12kts
10-Jun-20 18:31 36.099611 -115.158759 103 2090ft 0kts
10-Jun-20 18:32 36.099611 -115.158756 96 2090ft 0kts
10-Jun-20 18:33 36.099611 -115.158753 87 2090ft 0kts
10-Jun-20 18:34 36.099612 -115.158749 78 2090ft 0kts
10-Jun-20 18:35 36.099627 -115.158510 80 2089ft 6kts
10-Jun-20 18:36 36.099627 -115.156759 124 2085ft 7kts
10-Jun-20 18:37 36.082877 -115.166125 205 2572ft 113kts
10-Jun-20 18:38 36.050183 -115.181517 201 4148ft 136kts
10-Jun-20 18:39 36.013200 -115.199358 198 5939ft 137kts
10-Jun-20 18:40 35.975498 -115.218328 200 7427ft 145kts
10-Jun-20 18:41 35.934376 -115.217224 177 9474ft 150kts
10-Jun-20 18:42 35.892968 -115.214981 177 11586ft 149kts
10-Jun-20 18:43 35.849269 -115.212710 178 13349ft 154kts
10-Jun-20 18:44 35.804554 -115.210423 179 14955ft 157kts
10-Jun-20 18:45 35.758789 -115.208096 180 16425ft 161kts
10-Jun-20 18:46 35.712083 -115.205727 180 17774ft 164kts
10-Jun-20 18:47 35.664448 -115.203325 180 18991ft 167kts
10-Jun-20 18:48 35.614721 -115.200809 180 21035ft 175kts
10-Jun-20 18:49 35.563840 -115.198225 181 23027ft 180kts
10-Jun-20 18:50 35.509763 -115.195555 180 24081ft 224kts
10-Jun-20 18:51 35.437623 -115.191841 179 24016ft 273kts
10-Jun-20 18:52 35.359788 -115.187892 179 23976ft 289kts
10-Jun-20 18:53 35.276056 -115.183687 179 23968ft 293kts
10-Jun-20 18:54 35.191547 -115.179450 179 23966ft 295kts
10-Jun-20 18:55 35.109857 -115.188587 207 23986ft 289kts
10-Jun-20 18:56 35.034700 -115.233297 207 23971ft 291kts
10-Jun-20 18:57 34.959006 -115.277850 207 23971ft 291kts
10-Jun-20 18:58 34.883903 -115.321941 207 23972ft 292kts
10-Jun-20 18:59 34.807034 -115.366981 206 23993ft 292kts
10-Jun-20 19:00 34.730483 -115.411748 206 24019ft 293kts
10-Jun-20 19:01 34.654018 -115.456359 206 24026ft 294kts
10-Jun-20 19:02 34.577289 -115.501040 206 24026ft 295kts
10-Jun-20 19:03 34.500114 -115.545892 206 24026ft 296kts
10-Jun-20 19:04 34.423425 -115.590362 206 24026ft 297kts
10-Jun-20 19:05 34.352377 -115.631486 206 22769ft 277kts
10-Jun-20 19:06 34.287724 -115.668826 206 20861ft 269kts
10-Jun-20 19:07 34.221210 -115.707185 205 19021ft 264kts
10-Jun-20 19:08 34.152697 -115.746639 205 18475ft 257kts
10-Jun-20 19:09 34.088739 -115.789855 215 17443ft 251kts
10-Jun-20 19:10 34.029384 -115.840374 214 16240ft 250kts
10-Jun-20 19:11 33.969859 -115.890899 214 15668ft 248kts
10-Jun-20 19:13 33.911233 -115.940580 214 15235ft 247kts
10-Jun-20 19:14 33.854500 -115.988574 214 14884ft 246kts
10-Jun-20 19:15 33.797013 -116.037122 214 14665ft 245kts
10-Jun-20 19:16 33.739039 -116.086002 214 14527ft 244kts
10-Jun-20 19:17 33.680996 -116.134859 214 14291ft 243kts
10-Jun-20 19:18 33.623690 -116.183013 214 14014ft 236kts
10-Jun-20 19:19 33.568689 -116.229158 214 14015ft 229kts
10-Jun-20 19:20 33.512504 -116.276210 214 14062ft 249kts
10-Jun-20 19:21 33.453198 -116.325789 214 14093ft 259kts
10-Jun-20 19:22 33.394970 -116.374406 214 14006ft 263kts
10-Jun-20 19:23 33.336138 -116.423453 214 12999ft 236kts
10-Jun-20 19:24 33.281290 -116.469117 214 11992ft 213kts
10-Jun-20 19:25 33.230510 -116.511296 214 11660ft 233kts
10-Jun-20 19:26 33.175432 -116.556974 214 11095ft 238kts
10-Jun-20 19:27 33.119077 -116.606903 201 9942ft 244kts
10-Jun-20 19:28 33.053858 -116.637438 201 9158ft 243kts
10-Jun-20 19:28 33.000008 -116.662391 201 9105ft 240kts
10-Jun-20 19:30 32.936175 -116.691877 201 8528ft 232kts
10-Jun-20 19:31 32.874482 -116.719767 201 7242ft 230kts
10-Jun-20 19:31 32.822954 -116.742540 201 6279ft 225kts
10-Jun-20 19:33 32.778140 -116.798367 241 5491ft 196kts
10-Jun-20 19:33 32.755537 -116.846034 241 5141ft 186kts
10-Jun-20 19:34 32.727253 -116.905943 241 5056ft 198kts
10-Jun-20 19:35 32.699016 -116.966022 245 3986ft 198kts
10-Jun-20 19:36 32.690511 -117.029916 281 3160ft 187kts
10-Jun-20 19:37 32.709850 -117.089516 289 2263ft 175kts
10-Jun-20 19:38 32.722438 -117.139343 280 1016ft 127kts
10-Jun-20 19:39 32.729570 -117.172355 281 212ft 88kts
10-Jun-20 19:40 32.735315 -117.196562 281 19ft 33kts
10-Jun-20 19:41 32.734544 -117.198098 105 19ft 6kts
10-Jun-20 19:42 32.733186 -117.192368 105 19ft 23kts
10-Jun-20 19:43 32.731803 -117.186802 106 19ft 15kts
10-Jun-20 19:44 32.733133 -117.183169 107 19ft 16kts
10-Jun-20 19:45 32.733470 -117.179503 31 19ft 9kts
10-Jun-20 19:46 32.733281 -117.177824 60 19ft 0kts
10-Jun-20 19:47 32.733281 -117.177824 60 19ft 0kts
10-Jun-20 19:48 32.733281 -117.177824 60 19ft 0kts
10-Jun-20 19:49 32.733281 -117.177824 60 19ft 0kts

Navigation Log

Ident Type
Flight plan parsing failed, navigation log unavailable